Terminal Aerodrome Forecast
Issued by NWS

Home | Current Version | Previous Version | Text Only | Print | Product List | Glossary On
Versions: 1 2 3 4 5 6 7 8 9 10 11 12 13 14 15 16 17 18 19 20 21 22 23 24 25
043
FTUS43 KMPX 081739
TAFAXN
TAF
KAXN 081739Z 0818/0918 33022G30KT 5SM -SN BLSN BKN025 BKN040
      TEMPO 0818/0822 2SM BLSN
     FM090000 33016G24KT 6SM BLSN SCT035
     FM090600 34012G20KT P6SM FEW035=

USA.gov is the U.S. government's official web portal to all federal, state and local government web resources and services.